createdAt,value
2022-09-26T00:01:59.158Z,50.34
2022-09-26T00:04:32.820Z,50.41
2022-09-26T00:07:01.669Z,50.39
2022-09-26T00:09:30.433Z,50.07
2022-09-26T00:12:00.405Z,49.95
2022-09-26T00:14:29.815Z,49.96
2022-09-26T00:16:58.561Z,50.10
2022-09-26T00:19:27.087Z,49.91
2022-09-26T00:21:55.618Z,50.18
2022-09-26T00:24:24.212Z,49.79
2022-09-26T00:26:52.700Z,49.80
2022-09-26T00:29:22.741Z,49.75
2022-09-26T00:31:52.459Z,49.90
2022-09-26T00:34:21.403Z,49.87
2022-09-26T00:36:49.857Z,49.87
2022-09-26T00:39:18.366Z,49.64
2022-09-26T00:41:46.823Z,49.89
2022-09-26T00:44:46.783Z,49.67
2022-09-26T00:47:25.594Z,49.77
2022-09-26T00:49:56.485Z,49.87
2022-09-26T00:52:28.281Z,49.89
2022-09-26T00:54:57.991Z,49.47
2022-09-26T00:57:29.316Z,49.53
2022-09-26T01:00:02.229Z,49.52
2022-09-26T01:02:31.139Z,49.66
2022-09-26T01:04:59.862Z,49.37
2022-09-26T01:07:29.092Z,49.50
2022-09-26T01:09:57.600Z,49.75
2022-09-26T01:12:26.486Z,49.25
2022-09-26T01:14:55.622Z,49.29
2022-09-26T01:17:25.545Z,49.34
2022-09-26T01:20:07.170Z,49.58
2022-09-26T01:23:38.875Z,49.20
2022-09-26T01:26:35.910Z,49.42
2022-09-26T01:29:31.406Z,49.52
2022-09-26T01:32:22.853Z,49.35
2022-09-26T01:34:55.829Z,49.57
2022-09-26T01:37:28.937Z,49.25
2022-09-26T01:40:02.571Z,49.14
2022-09-26T01:42:37.257Z,49.30
2022-09-26T01:45:09.943Z,49.42
2022-09-26T01:47:42.621Z,49.17
2022-09-26T01:50:16.378Z,49.25
2022-09-26T01:52:46.866Z,48.90
2022-09-26T01:55:18.355Z,49.04
2022-09-26T01:57:49.805Z,49.08
2022-09-26T02:00:18.650Z,48.92
2022-09-26T02:02:50.073Z,48.99
2022-09-26T02:05:23.818Z,49.34
2022-09-26T02:07:56.293Z,48.92
2022-09-26T02:10:29.094Z,49.17
2022-09-26T02:13:02.292Z,49.21
2022-09-26T02:15:30.843Z,49.21
2022-09-26T02:18:04.515Z,49.19
2022-09-26T02:20:34.151Z,49.13
2022-09-26T02:23:04.105Z,49.19
2022-09-26T02:25:32.620Z,49.15
2022-09-26T02:28:01.436Z,48.99
2022-09-26T02:30:30.342Z,48.80
2022-09-26T02:33:00.151Z,48.98
2022-09-26T02:35:46.217Z,49.18
2022-09-26T02:38:15.357Z,49.20
2022-09-26T02:40:51.356Z,48.96
2022-09-26T02:43:44.418Z,49.18
2022-09-26T02:46:44.038Z,49.10
2022-09-26T02:49:36.699Z,48.91
2022-09-26T02:52:21.842Z,48.93
2022-09-26T02:54:55.429Z,48.88
2022-09-26T02:57:31.985Z,48.69
2022-09-26T03:00:05.088Z,48.77
2022-09-26T03:02:37.304Z,48.99
2022-09-26T03:05:10.228Z,48.82
2022-09-26T03:07:42.715Z,48.98
2022-09-26T03:10:11.216Z,48.90
2022-09-26T03:12:39.853Z,48.59
2022-09-26T03:15:09.703Z,48.96
2022-09-26T03:17:39.560Z,48.96
2022-09-26T03:20:12.218Z,48.89
2022-09-26T03:22:40.718Z,48.75
2022-09-26T03:25:10.799Z,48.82
2022-09-26T03:27:39.235Z,48.93
2022-09-26T03:30:09.876Z,48.64
2022-09-26T03:32:38.627Z,48.83
2022-09-26T03:35:09.702Z,48.70
2022-09-26T03:37:38.393Z,48.81
2022-09-26T03:40:09.056Z,48.91
2022-09-26T03:42:37.627Z,48.54
2022-09-26T03:45:08.934Z,48.52
2022-09-26T03:47:38.061Z,48.48
2022-09-26T03:50:09.524Z,48.76
2022-09-26T03:52:37.983Z,48.71
2022-09-26T03:55:07.211Z,48.52
2022-09-26T03:57:35.791Z,48.46
2022-09-26T04:00:07.740Z,48.69
2022-09-26T04:02:36.326Z,48.55
2022-09-26T04:05:05.478Z,48.66
2022-09-26T04:07:35.438Z,48.53
2022-09-26T04:10:03.923Z,48.47
2022-09-26T04:12:33.580Z,48.60
2022-09-26T04:15:02.474Z,48.67
2022-09-26T04:17:31.126Z,48.70
2022-09-26T04:19:59.663Z,48.62
2022-09-26T04:22:28.459Z,48.39
2022-09-26T04:24:58.272Z,48.40
2022-09-26T04:27:28.974Z,48.35
2022-09-26T04:29:58.273Z,48.21
2022-09-26T04:32:26.871Z,48.33
2022-09-26T04:34:55.292Z,48.25
2022-09-26T04:37:24.182Z,48.31
2022-09-26T04:39:52.660Z,48.55
2022-09-26T04:42:24.510Z,48.43
2022-09-26T04:44:53.070Z,48.56
2022-09-26T04:47:22.111Z,48.41
2022-09-26T04:49:50.550Z,48.21
2022-09-26T04:52:19.082Z,48.21
2022-09-26T04:54:47.625Z,48.49
2022-09-26T04:57:19.705Z,48.22
2022-09-26T04:59:49.978Z,48.50
2022-09-26T05:02:20.245Z,48.35
2022-09-26T05:04:49.884Z,48.36
2022-09-26T05:07:18.422Z,48.45
2022-09-26T05:09:48.041Z,48.50
2022-09-26T05:12:17.324Z,48.32
2022-09-26T05:14:46.026Z,48.67
2022-09-26T05:17:16.474Z,48.54
2022-09-26T05:19:45.528Z,48.78
2022-09-26T05:22:14.044Z,48.86
2022-09-26T05:25:11.532Z,49.10
2022-09-26T05:27:40.057Z,48.80
2022-09-26T05:30:09.722Z,49.50
2022-09-26T05:32:39.904Z,49.62
2022-09-26T05:35:09.390Z,49.26
2022-09-26T05:37:37.832Z,49.49
2022-09-26T05:40:24.794Z,49.33
2022-09-26T05:42:53.993Z,49.39
2022-09-26T05:45:22.535Z,49.20
2022-09-26T05:47:52.599Z,48.07
2022-09-26T05:50:22.419Z,48.86
2022-09-26T05:52:50.927Z,48.70
2022-09-26T05:55:19.488Z,48.92
2022-09-26T05:57:52.649Z,48.51
2022-09-26T06:00:21.586Z,48.92
2022-09-26T06:02:57.515Z,48.45
2022-09-26T06:05:26.193Z,49.28
2022-09-26T06:07:54.713Z,49.26
2022-09-26T06:10:23.883Z,49.06
2022-09-26T06:12:52.359Z,49.24
2022-09-26T06:15:21.193Z,49.40
2022-09-26T06:17:49.724Z,49.62
2022-09-26T06:20:21.014Z,49.22
2022-09-26T06:22:49.468Z,49.01
2022-09-26T06:25:18.321Z,49.72
2022-09-26T06:27:46.774Z,50.47
2022-09-26T06:30:16.450Z,50.37
2022-09-26T06:32:46.587Z,50.67
2022-09-26T06:35:15.177Z,50.18
2022-09-26T06:37:44.918Z,50.94
2022-09-26T06:40:13.517Z,50.28
2022-09-26T06:42:43.490Z,50.17
2022-09-26T06:45:12.565Z,50.23
2022-09-26T06:47:41.273Z,50.40
2022-09-26T06:50:11.034Z,50.49
2022-09-26T06:52:39.559Z,50.18
2022-09-26T06:55:10.664Z,50.31
2022-09-26T06:57:40.169Z,50.47
2022-09-26T07:00:10.215Z,50.29
2022-09-26T07:02:38.827Z,50.24
2022-09-26T07:05:08.584Z,50.13
2022-09-26T07:07:43.421Z,50.12
2022-09-26T07:10:13.615Z,50.42
2022-09-26T07:12:44.298Z,50.00
2022-09-26T07:15:13.893Z,50.02
2022-09-26T07:17:42.493Z,50.61
2022-09-26T07:20:11.586Z,50.49
2022-09-26T07:22:40.026Z,50.19
2022-09-26T07:25:11.033Z,50.29
2022-09-26T07:27:41.736Z,49.97
2022-09-26T07:30:14.028Z,50.02
2022-09-26T07:32:47.976Z,49.95
2022-09-26T07:35:17.619Z,49.92
2022-09-26T07:37:46.253Z,49.84
2022-09-26T07:40:14.817Z,50.03
2022-09-26T07:43:03.956Z,49.62
2022-09-26T07:45:51.266Z,49.91
2022-09-26T07:48:37.177Z,49.57
2022-09-26T07:51:09.246Z,49.71
2022-09-26T07:53:38.873Z,49.91
2022-09-26T07:56:10.498Z,50.04
2022-09-26T07:58:42.289Z,49.83
2022-09-26T08:01:12.760Z,49.78
2022-09-26T08:03:42.310Z,49.64
2022-09-26T08:06:11.031Z,49.67
2022-09-26T08:08:39.535Z,49.88
2022-09-26T08:11:15.493Z,49.62
2022-09-26T08:13:45.682Z,50.29
2022-09-26T08:16:23.132Z,50.21
2022-09-26T08:18:51.880Z,50.07
2022-09-26T08:21:20.482Z,49.94
2022-09-26T08:23:49.080Z,49.93
2022-09-26T08:26:23.988Z,49.59
2022-09-26T08:28:53.898Z,49.61
2022-09-26T08:31:23.491Z,49.71
2022-09-26T08:33:51.984Z,49.69
2022-09-26T08:36:21.820Z,49.94
2022-09-26T08:38:51.330Z,49.86
2022-09-26T08:41:32.480Z,49.73
2022-09-26T08:44:11.328Z,49.32
2022-09-26T08:46:50.502Z,49.67
2022-09-26T08:49:48.545Z,49.23
2022-09-26T08:52:31.119Z,49.45
2022-09-26T08:55:02.207Z,49.82
2022-09-26T08:57:37.964Z,49.49
2022-09-26T09:00:20.243Z,49.73
2022-09-26T09:03:12.173Z,49.43
2022-09-26T09:05:43.802Z,49.68
2022-09-26T09:08:14.819Z,49.70
2022-09-26T09:10:47.147Z,49.58
2022-09-26T09:13:39.933Z,49.82
2022-09-26T09:16:19.881Z,49.80
2022-09-26T09:18:54.538Z,49.38
2022-09-26T09:21:36.831Z,49.46
2022-09-26T09:24:20.505Z,49.59
2022-09-26T09:30:15.915Z,49.69
2022-09-26T09:32:51.161Z,49.98
2022-09-26T09:35:21.784Z,49.78
2022-09-26T09:37:51.797Z,49.77
2022-09-26T09:40:30.827Z,49.51
2022-09-26T09:43:02.792Z,49.71
2022-09-26T09:45:35.087Z,49.90
2022-09-26T09:48:05.113Z,49.55
2022-09-26T09:50:41.106Z,49.59
2022-09-26T09:53:19.846Z,49.38
2022-09-26T09:55:55.625Z,49.41
2022-09-26T09:58:35.606Z,49.49
2022-09-26T10:01:09.938Z,49.50
2022-09-26T10:03:43.195Z,49.57
2022-09-26T10:06:44.338Z,49.50
2022-09-26T10:09:39.283Z,49.55
2022-09-26T10:11:54.494Z,49.93
2022-09-26T10:14:29.093Z,49.33
2022-09-26T10:17:20.731Z,49.52
2022-09-26T10:19:50.725Z,49.69
2022-09-26T10:22:26.159Z,49.48
2022-09-26T10:25:00.672Z,50.45
2022-09-26T10:27:38.208Z,50.09
2022-09-26T10:30:25.887Z,49.32
2022-09-26T10:32:57.147Z,49.79
2022-09-26T10:35:29.694Z,49.79
2022-09-26T10:38:02.461Z,49.74
2022-09-26T10:40:48.605Z,49.98
2022-09-26T10:43:30.763Z,50.36
2022-09-26T10:46:08.977Z,49.69
2022-09-26T10:48:48.240Z,50.03
2022-09-26T10:51:24.487Z,49.93
2022-09-26T10:53:53.734Z,49.95
2022-09-26T10:56:26.315Z,50.08
2022-09-26T10:58:58.988Z,50.13
2022-09-26T11:01:30.242Z,50.34
2022-09-26T11:04:01.684Z,50.49
2022-09-26T11:06:33.861Z,50.27
2022-09-26T11:09:03.544Z,50.43
2022-09-26T11:11:35.245Z,50.40
2022-09-26T11:14:05.348Z,50.33
2022-09-26T11:16:52.208Z,50.69
2022-09-26T11:19:33.797Z,50.58
2022-09-26T11:22:10.520Z,50.27
2022-09-26T11:24:46.045Z,50.15
2022-09-26T11:27:23.888Z,50.54
2022-09-26T11:29:57.357Z,50.56
2022-09-26T11:32:30.352Z,50.54
2022-09-26T11:35:02.446Z,50.56
2022-09-26T11:38:03.542Z,50.05
2022-09-26T11:41:03.717Z,50.38
2022-09-26T11:43:46.513Z,50.25
2022-09-26T11:46:35.609Z,50.45
2022-09-26T11:49:46.203Z,50.39
2022-09-26T11:52:29.689Z,50.21
2022-09-26T11:57:42.529Z,50.07
2022-09-26T12:00:16.375Z,50.42
2022-09-26T12:03:08.642Z,50.18
2022-09-26T12:05:45.757Z,50.13
2022-09-26T12:08:24.581Z,50.07
2022-09-26T12:11:00.633Z,50.46
2022-09-26T12:13:38.127Z,50.55
2022-09-26T12:16:14.468Z,50.47
2022-09-26T12:18:54.597Z,50.63
2022-09-26T12:21:30.655Z,50.66
2022-09-26T12:24:04.374Z,50.27
2022-09-26T12:26:40.169Z,50.61
2022-09-26T12:29:25.928Z,50.34
2022-09-26T12:32:07.495Z,50.61
2022-09-26T12:35:09.075Z,50.54
2022-09-26T12:37:57.327Z,50.70
2022-09-26T12:40:48.631Z,50.51
2022-09-26T12:43:54.446Z,50.76
2022-09-26T12:46:31.773Z,50.68
2022-09-26T12:49:19.026Z,50.31
2022-09-26T12:51:49.137Z,50.67
2022-09-26T12:54:43.847Z,50.63
2022-09-26T12:57:21.293Z,50.42
2022-09-26T13:00:11.723Z,50.52
2022-09-26T13:03:27.176Z,50.60
2022-09-26T13:06:49.069Z,50.21
2022-09-26T13:09:44.376Z,50.58
2022-09-26T13:12:22.258Z,50.36
2022-09-26T13:15:03.020Z,50.72
2022-09-26T13:17:34.600Z,50.74
2022-09-26T13:20:04.849Z,50.80
2022-09-26T13:22:37.869Z,50.71
2022-09-26T13:25:19.755Z,50.27
2022-09-26T13:27:54.682Z,50.68
2022-09-26T13:30:26.475Z,50.40
2022-09-26T13:33:03.540Z,50.55
2022-09-26T13:35:35.933Z,51.23
2022-09-26T13:38:33.844Z,50.59
2022-09-26T13:41:09.610Z,50.51
2022-09-26T13:43:53.591Z,50.75
2022-09-26T13:46:34.661Z,50.66
2022-09-26T13:49:25.352Z,50.81
2022-09-26T13:52:16.342Z,50.35
2022-09-26T13:54:57.302Z,50.46
2022-09-26T13:57:32.663Z,50.75
2022-09-26T14:00:01.983Z,50.81
2022-09-26T14:02:32.073Z,50.72
2022-09-26T14:05:29.140Z,50.25
2022-09-26T14:08:15.140Z,50.51
2022-09-26T14:10:44.324Z,50.54
2022-09-26T14:13:22.011Z,50.45
2022-09-26T14:15:59.657Z,50.69
2022-09-26T14:18:58.902Z,50.55
2022-09-26T14:21:38.314Z,50.33
2022-09-26T14:24:37.020Z,50.51
2022-09-26T14:27:22.264Z,50.03
2022-09-26T14:29:53.498Z,50.36
2022-09-26T14:32:23.982Z,50.17
2022-09-26T14:34:59.328Z,49.96
2022-09-26T14:37:41.296Z,49.96
2022-09-26T14:40:29.287Z,50.11
2022-09-26T14:43:00.804Z,50.08
2022-09-26T14:45:45.712Z,50.03
2022-09-26T14:48:37.526Z,49.77
2022-09-26T14:51:23.420Z,50.17
2022-09-26T14:53:56.297Z,49.89
2022-09-26T14:56:41.018Z,49.81
2022-09-26T14:59:43.636Z,50.02
2022-09-26T15:02:35.065Z,49.79
2022-09-26T15:05:14.622Z,49.76
2022-09-26T15:07:46.448Z,49.91
2022-09-26T15:10:37.968Z,49.82
2022-09-26T15:13:16.013Z,49.58
2022-09-26T15:15:51.887Z,49.88
2022-09-26T15:18:30.454Z,49.58
2022-09-26T15:21:04.459Z,49.59
2022-09-26T15:23:35.816Z,49.52
2022-09-26T15:26:04.449Z,49.07
2022-09-26T15:28:34.828Z,49.60
2022-09-26T15:31:27.138Z,48.71
2022-09-26T15:34:04.453Z,49.13
2022-09-26T15:36:34.894Z,49.67
2022-09-26T15:39:37.529Z,49.48
2022-09-26T15:42:46.942Z,49.08
2022-09-26T15:45:27.303Z,49.27
2022-09-26T15:47:56.537Z,49.18
2022-09-26T15:50:31.656Z,49.24
2022-09-26T15:53:03.199Z,49.40
2022-09-26T15:55:35.885Z,49.75
2022-09-26T15:58:06.106Z,49.48
2022-09-26T16:00:36.783Z,50.02
2022-09-26T16:03:38.430Z,49.78
2022-09-26T16:06:20.736Z,49.78
2022-09-26T16:08:53.102Z,49.59
2022-09-26T16:11:23.038Z,49.16
2022-09-26T16:13:52.083Z,49.52
2022-09-26T16:16:24.392Z,49.54
2022-09-26T16:18:55.787Z,49.76
2022-09-26T16:21:25.948Z,49.24
2022-09-26T16:23:55.564Z,49.27
2022-09-26T16:26:32.476Z,49.14
2022-09-26T16:29:01.696Z,49.29
2022-09-26T16:31:34.688Z,49.08
2022-09-26T16:34:04.428Z,49.68
2022-09-26T16:36:35.093Z,49.28
2022-09-26T16:39:04.656Z,49.13
2022-09-26T16:42:00.203Z,49.25
2022-09-26T16:44:35.281Z,49.42
2022-09-26T16:47:06.734Z,49.92
2022-09-26T16:49:46.837Z,49.85
2022-09-26T16:52:30.244Z,49.31
2022-09-26T16:54:59.918Z,49.52
2022-09-26T16:57:31.692Z,49.64
2022-09-26T17:00:16.018Z,49.77
2022-09-26T17:02:44.678Z,50.25
2022-09-26T17:05:18.686Z,50.16
2022-09-26T17:07:48.539Z,50.24
2022-09-26T17:10:17.413Z,50.16
2022-09-26T17:12:51.616Z,50.49
2022-09-26T17:15:25.146Z,51.13
2022-09-26T17:17:54.456Z,50.33
2022-09-26T17:20:23.692Z,49.99
2022-09-26T17:22:52.364Z,50.19
2022-09-26T17:25:21.750Z,50.06
2022-09-26T17:27:53.748Z,50.39
2022-09-26T17:30:23.578Z,50.67
2022-09-26T17:32:54.468Z,50.19
2022-09-26T17:35:27.990Z,50.19
2022-09-26T17:37:56.542Z,50.36
2022-09-26T17:40:26.699Z,50.90
2022-09-26T17:42:57.557Z,51.18
2022-09-26T17:45:29.354Z,50.93
2022-09-26T17:47:59.346Z,50.89
2022-09-26T17:50:30.144Z,51.33
2022-09-26T17:52:59.097Z,50.86
2022-09-26T17:55:27.779Z,50.84
2022-09-26T17:57:58.425Z,50.96
2022-09-26T18:00:27.173Z,50.87
2022-09-26T18:02:57.923Z,51.10
2022-09-26T18:05:30.718Z,50.93
2022-09-26T18:08:01.283Z,50.80
2022-09-26T18:10:33.840Z,50.79
2022-09-26T18:13:09.415Z,50.92
2022-09-26T18:15:41.676Z,50.63
2022-09-26T18:18:13.020Z,50.54
2022-09-26T18:20:41.503Z,50.56
2022-09-26T18:23:12.410Z,50.42
2022-09-26T18:25:40.958Z,50.53
2022-09-26T18:28:15.991Z,50.22
2022-09-26T18:30:47.795Z,50.06
2022-09-26T18:33:16.805Z,50.36
2022-09-26T18:35:45.824Z,50.20
2022-09-26T18:38:14.466Z,50.31
2022-09-26T18:40:44.930Z,50.12
2022-09-26T18:43:17.941Z,50.08
2022-09-26T18:45:46.540Z,50.14
2022-09-26T18:48:21.558Z,50.42
2022-09-26T18:50:50.047Z,50.44
2022-09-26T18:53:20.274Z,50.35
2022-09-26T18:56:06.680Z,50.35
2022-09-26T18:58:36.686Z,50.18
2022-09-26T19:01:07.168Z,49.82
2022-09-26T19:03:37.989Z,49.84
2022-09-26T19:06:10.712Z,48.65
2022-09-26T19:08:40.527Z,49.65
2022-09-26T19:11:13.339Z,50.20
2022-09-26T19:13:43.269Z,49.80
2022-09-26T19:16:11.972Z,49.81
2022-09-26T19:18:41.503Z,49.89
2022-09-26T19:21:16.893Z,49.00
2022-09-26T19:23:45.354Z,49.21
2022-09-26T19:26:26.107Z,48.31
2022-09-26T19:28:55.982Z,49.31
2022-09-26T19:31:24.650Z,47.96
2022-09-26T19:33:53.286Z,48.74
2022-09-26T19:36:21.841Z,48.97
2022-09-26T19:38:50.320Z,48.64
2022-09-26T19:41:18.911Z,48.34
2022-09-26T19:43:47.341Z,48.01
2022-09-26T19:46:23.486Z,47.78
2022-09-26T19:48:52.111Z,48.06
2022-09-26T19:51:20.616Z,47.98
2022-09-26T19:53:49.127Z,48.01
2022-09-26T19:56:17.951Z,48.17
2022-09-26T19:58:48.636Z,48.24
2022-09-26T20:01:20.379Z,47.84
2022-09-26T20:03:49.083Z,47.97
2022-09-26T20:06:21.183Z,47.46
2022-09-26T20:08:50.240Z,47.37
2022-09-26T20:11:19.078Z,47.58
2022-09-26T20:14:05.270Z,47.27
2022-09-26T20:16:35.782Z,47.26
2022-09-26T20:19:04.610Z,47.45
2022-09-26T20:21:33.059Z,47.44
2022-09-26T20:24:02.006Z,47.59
2022-09-26T20:26:30.689Z,47.10
2022-09-26T20:28:59.227Z,46.98
2022-09-26T20:31:29.216Z,47.64
2022-09-26T20:34:00.133Z,47.58
2022-09-26T20:36:30.759Z,47.15
2022-09-26T20:39:01.306Z,46.75
2022-09-26T20:41:32.913Z,47.66
2022-09-26T20:44:03.866Z,46.99
2022-09-26T20:46:34.472Z,47.39
2022-09-26T20:49:06.253Z,47.59
2022-09-26T20:51:35.204Z,47.00
2022-09-26T20:54:03.957Z,46.96
2022-09-26T20:56:32.633Z,46.85
2022-09-26T20:59:01.159Z,47.00
2022-09-26T21:01:30.114Z,46.57
2022-09-26T21:03:58.748Z,46.39
2022-09-26T21:06:32.938Z,45.65
2022-09-26T21:09:02.772Z,46.21
2022-09-26T21:11:31.282Z,46.39
2022-09-26T21:13:59.694Z,46.21
2022-09-26T21:16:28.300Z,46.55
2022-09-26T21:18:56.795Z,46.49
2022-09-26T21:21:26.674Z,46.50
2022-09-26T21:23:56.656Z,46.35
2022-09-26T21:26:26.688Z,46.29
2022-09-26T21:28:56.085Z,46.10
2022-09-26T21:31:27.306Z,46.27
2022-09-26T21:33:56.531Z,46.11
2022-09-26T21:36:25.106Z,46.17
2022-09-26T21:38:54.119Z,46.29
2022-09-26T21:41:23.858Z,46.09
2022-09-26T21:43:55.672Z,45.85
2022-09-26T21:46:25.107Z,46.12
2022-09-26T21:48:55.042Z,46.02
2022-09-26T21:51:25.196Z,45.66
2022-09-26T21:53:56.434Z,45.81
2022-09-26T21:56:28.799Z,45.48
2022-09-26T21:58:57.361Z,45.39
2022-09-26T22:01:25.886Z,45.49
2022-09-26T22:03:54.618Z,45.73
2022-09-26T22:06:23.164Z,46.64
2022-09-26T22:08:51.642Z,47.12
2022-09-26T22:11:20.096Z,46.95
2022-09-26T22:13:49.904Z,47.50
2022-09-26T22:16:18.596Z,47.38
2022-09-26T22:18:47.067Z,47.12
2022-09-26T22:21:15.600Z,47.56
2022-09-26T22:23:44.139Z,47.28
2022-09-26T22:26:12.813Z,47.32
2022-09-26T22:28:41.351Z,47.40
2022-09-26T22:31:11.307Z,47.64
2022-09-26T22:33:39.927Z,47.47
2022-09-26T22:36:09.188Z,47.36
2022-09-26T22:38:37.763Z,47.50
2022-09-26T22:41:07.381Z,47.21
2022-09-26T22:43:36.135Z,47.53
2022-09-26T22:46:05.789Z,47.29
2022-09-26T22:48:36.312Z,47.51
2022-09-26T22:51:05.117Z,47.30
2022-09-26T22:53:34.136Z,47.30
2022-09-26T22:56:05.521Z,47.25
2022-09-26T22:58:36.725Z,47.31
2022-09-26T23:01:06.209Z,47.20
2022-09-26T23:03:36.118Z,47.17
2022-09-26T23:06:05.018Z,47.35
2022-09-26T23:08:33.493Z,47.27
2022-09-26T23:11:02.311Z,47.14
2022-09-26T23:13:31.588Z,47.42
2022-09-26T23:16:05.394Z,47.25
2022-09-26T23:18:35.614Z,47.13
2022-09-26T23:21:08.858Z,47.03
2022-09-26T23:23:37.578Z,47.09
2022-09-26T23:26:06.826Z,47.36
2022-09-26T23:28:35.485Z,47.18
2022-09-26T23:31:07.923Z,46.96
2022-09-26T23:33:37.897Z,46.70
2022-09-26T23:36:07.193Z,47.30
2022-09-26T23:38:36.150Z,46.88
2022-09-26T23:41:04.668Z,47.22
2022-09-26T23:43:33.204Z,47.05
2022-09-26T23:46:01.839Z,47.04
2022-09-26T23:48:30.460Z,47.31
2022-09-26T23:51:00.270Z,47.17
2022-09-26T23:53:28.878Z,47.03
2022-09-26T23:56:04.858Z,46.84
2022-09-26T23:58:33.359Z,47.11
